Time;durP1;ratioP1;P1;durP2;ratioP2;P2;SDS_P1;SDS_P2;PMS_P1;PMS_P2;Temp;Humidity;BMP_temperature;BMP_pressure;BME280_temperature;BME280_humidity;BME280_pressure;Samples;Min_cycle;Max_cycle;Signal;HPM_P1;HPM_P2
2021/08/10 00:00:18;;;;;;;6.03;1.90;;;;;;;13.69;77.56;96874.81;3551373;40;20870;-77
2021/08/10 00:02:46;;;;;;;7.63;1.80;;;;;;;13.68;77.59;96873.13;3550479;40;20459;-78
2021/08/10 00:05:15;;;;;;;12.90;1.87;;;;;;;13.70;77.02;96881.75;3550350;40;20981;-75
2021/08/10 00:07:43;;;;;;;2.10;1.40;;;;;;;13.68;77.46;96883.66;3551973;40;20472;-75
2021/08/10 00:10:12;;;;;;;3.57;1.90;;;;;;;13.67;77.95;96889.03;3551666;40;20491;-75
2021/08/10 00:12:39;;;;;;;2.63;1.50;;;;;;;13.67;77.72;96886.41;3546603;40;20853;-76
2021/08/10 00:15:09;;;;;;;7.07;2.03;;;;;;;13.48;78.24;96871.19;3548340;40;20464;-74
2021/08/10 00:17:37;;;;;;;5.73;1.70;;;;;;;13.43;78.39;96884.69;3549308;40;20467;-74
2021/08/10 00:20:06;;;;;;;4.07;2.10;;;;;;;13.42;78.32;96872.47;3547988;40;20476;-74
2021/08/10 00:22:36;;;;;;;7.43;1.90;;;;;;;13.49;78.12;96873.69;3550007;40;20552;-74
2021/08/10 00:25:05;;;;;;;2.80;1.60;;;;;;;13.40;78.68;96879.66;3552854;40;20956;-73
2021/08/10 00:27:33;;;;;;;3.47;1.63;;;;;;;13.16;79.51;96870.00;3549002;40;20681;-75
2021/08/10 00:30:01;;;;;;;8.47;1.67;;;;;;;13.17;79.79;96874.31;3542373;40;20615;-74
2021/08/10 00:32:29;;;;;;;3.60;1.50;;;;;;;13.14;79.40;96871.91;3552259;40;20477;-73
2021/08/10 00:34:57;;;;;;;2.77;1.87;;;;;;;13.22;79.28;96879.22;3549182;40;20447;-76
2021/08/10 00:37:25;;;;;;;9.50;2.10;;;;;;;13.13;79.48;96872.88;3548375;40;20871;-74
2021/08/10 00:39:54;;;;;;;12.63;1.97;;;;;;;13.19;79.17;96874.19;3547202;40;21221;-73
2021/08/10 00:42:22;;;;;;;3.13;1.73;;;;;;;13.22;79.51;96876.59;3550691;40;20916;-77
2021/08/10 00:44:50;;;;;;;3.50;1.73;;;;;;;13.18;79.21;96875.97;3550719;40;20950;-74
2021/08/10 00:47:18;;;;;;;3.27;1.73;;;;;;;13.21;79.23;96874.91;3544615;40;20903;-73
2021/08/10 00:49:46;;;;;;;6.33;2.70;;;;;;;13.19;78.81;96868.91;3549820;40;20890;-74
2021/08/10 00:52:14;;;;;;;3.53;1.77;;;;;;;13.20;79.09;96874.06;3550331;40;20499;-73
2021/08/10 00:54:42;;;;;;;5.87;2.37;;;;;;;13.06;79.85;96883.00;3552658;40;20450;-74
2021/08/10 00:57:12;;;;;;;6.60;1.63;;;;;;;13.02;79.87;96875.44;3550465;40;20932;-73
2021/08/10 00:59:40;;;;;;;5.27;1.70;;;;;;;13.04;79.99;96874.38;3551637;40;20748;-73
2021/08/10 01:02:08;;;;;;;2.50;1.60;;;;;;;13.01;79.95;96869.34;3550324;40;20783;-73
2021/08/10 01:04:37;;;;;;;6.03;1.90;;;;;;;13.00;79.79;96869.47;3551867;40;20456;-73
2021/08/10 01:07:11;;;;;;;3.90;1.93;;;;;;;12.96;80.49;96870.66;3550801;40;20713;-76
2021/08/10 01:09:46;;;;;;;7.43;1.63;;;;;;;12.98;79.99;96869.59;3551046;40;20430;-76
2021/08/10 01:12:20;;;;;;;7.70;2.57;;;;;;;13.01;79.86;96876.41;3548480;40;20842;-74
2021/08/10 01:14:55;;;;;;;3.33;1.80;;;;;;;12.86;80.18;96858.19;3551700;40;20454;-73
2021/08/10 01:17:28;;;;;;;6.00;1.70;;;;;;;12.89;80.28;96872.88;3550425;40;20560;-75
2021/08/10 01:20:24;;;;;;;11.63;1.60;;;;;;;12.90;80.45;96871.94;3553359;40;20745;-75
2021/08/10 01:22:56;;;;;;;5.50;2.23;;;;;;;12.83;80.90;96861.03;3552174;40;20517;-73
2021/08/10 01:25:37;;;;;;;3.90;1.50;;;;;;;12.76;80.88;96859.81;3553274;40;20700;-74
2021/08/10 01:28:21;;;;;;;6.23;1.90;;;;;;;12.73;81.04;96860.03;3551954;40;20753;-74
2021/08/10 01:31:02;;;;;;;6.07;2.20;;;;;;;12.64;81.55;96845.78;3551420;40;20697;-73
2021/08/10 01:33:34;;;;;;;6.63;1.60;;;;;;;12.73;81.50;96849.53;3551510;40;20704;-73
2021/08/10 01:36:03;;;;;;;3.47;1.97;;;;;;;12.69;81.63;96858.59;3550370;40;20685;-73
2021/08/10 01:38:33;;;;;;;5.23;1.93;;;;;;;12.72;81.27;96861.00;3546957;40;20534;-73
2021/08/10 01:41:02;;;;;;;9.80;2.77;;;;;;;12.71;81.45;96846.16;3540656;40;20448;-75
2021/08/10 01:43:32;;;;;;;3.50;1.80;;;;;;;12.71;81.58;96848.78;3548704;40;21221;-74
2021/08/10 01:46:01;;;;;;;4.63;2.00;;;;;;;12.69;81.48;96852.50;3553208;40;20541;-77
2021/08/10 01:48:31;;;;;;;4.80;1.60;;;;;;;12.64;81.66;96863.31;3552682;40;20447;-72
2021/08/10 01:51:00;;;;;;;5.70;1.80;;;;;;;12.59;81.72;96855.78;3551694;40;20688;-73
2021/08/10 01:53:30;;;;;;;3.37;1.87;;;;;;;12.41;81.59;96863.22;3545810;40;20556;-73
2021/08/10 01:55:59;;;;;;;5.47;2.03;;;;;;;12.22;81.44;96860.22;3551217;40;20809;-74
2021/08/10 01:58:29;;;;;;;2.10;1.30;;;;;;;12.32;81.72;96863.03;3552180;40;20448;-73
2021/08/10 02:00:58;;;;;;;4.03;1.80;;;;;;;12.41;81.68;96857.13;3545570;40;21064;-73
2021/08/10 02:03:28;;;;;;;4.90;1.87;;;;;;;12.36;81.58;96851.38;3551533;40;20466;-74
2021/08/10 02:05:58;;;;;;;3.23;1.67;;;;;;;12.34;81.65;96855.88;3551579;40;20469;-74
2021/08/10 02:08:28;;;;;;;4.87;1.63;;;;;;;12.37;81.72;96847.81;3550606;40;20540;-73
2021/08/10 02:10:57;;;;;;;5.37;2.07;;;;;;;12.32;81.73;96842.88;3550916;40;20712;-74
2021/08/10 02:13:25;;;;;;;6.50;1.77;;;;;;;12.23;81.99;96840.88;3552507;40;20447;-74
2021/08/10 02:15:54;;;;;;;5.03;2.13;;;;;;;12.18;82.27;96850.91;3551896;40;20538;-74
2021/08/10 02:18:23;;;;;;;9.63;1.60;;;;;;;12.20;82.24;96851.63;3551705;40;20482;-74
2021/08/10 02:20:53;;;;;;;4.77;1.70;;;;;;;12.25;82.31;96844.25;3551380;40;20512;-73
2021/08/10 02:23:25;;;;;;;3.13;1.67;;;;;;;12.24;81.99;96843.41;3549747;40;20860;-73
2021/08/10 02:25:54;;;;;;;6.97;2.10;;;;;;;12.26;82.01;96838.06;3547007;40;20626;-74
2021/08/10 02:28:22;;;;;;;3.90;1.83;;;;;;;12.24;82.40;96835.53;3551052;40;20775;-74
2021/08/10 02:30:53;;;;;;;2.60;1.57;;;;;;;12.16;82.87;96842.28;3551772;40;20559;-74
2021/08/10 02:33:24;;;;;;;2.70;2.03;;;;;;;12.17;82.79;96838.69;3549638;40;20678;-75
2021/08/10 02:35:56;;;;;;;3.93;1.80;;;;;;;12.25;82.43;96833.72;3552055;40;21047;-75
2021/08/10 02:38:27;;;;;;;2.70;1.80;;;;;;;12.28;82.22;96833.53;3547460;40;20470;-75
2021/08/10 02:40:58;;;;;;;5.17;2.10;;;;;;;12.27;82.49;96831.88;3548108;40;20536;-73
2021/08/10 02:43:28;;;;;;;3.90;2.27;;;;;;;12.16;82.99;96830.00;3542092;40;20846;-75
2021/08/10 02:45:56;;;;;;;4.50;1.83;;;;;;;12.12;83.11;96831.16;3550295;40;20481;-73
2021/08/10 02:48:30;;;;;;;4.07;1.90;;;;;;;12.13;82.79;96818.88;3551658;40;20679;-74
2021/08/10 02:50:58;;;;;;;8.90;1.77;;;;;;;12.17;82.44;96830.81;3551143;40;20902;-73
2021/08/10 02:53:28;;;;;;;4.60;1.60;;;;;;;12.19;82.83;96829.78;3549778;40;20843;-74
2021/08/10 02:56:13;;;;;;;2.73;1.90;;;;;;;11.99;83.56;96830.34;3546312;40;20538;-74
2021/08/10 02:58:47;;;;;;;4.30;1.53;;;;;;;12.06;83.08;96831.59;3548791;40;20925;-73
2021/08/10 03:01:20;;;;;;;3.97;2.10;;;;;;;12.06;83.03;96828.97;3550266;40;20571;-73
2021/08/10 03:03:49;;;;;;;2.50;1.60;;;;;;;11.81;83.34;96835.09;3551102;40;20518;-74
2021/08/10 03:06:17;;;;;;;7.30;1.70;;;;;;;11.65;83.63;96830.91;3550988;40;20458;-74
2021/08/10 03:08:51;;;;;;;6.77;2.37;;;;;;;11.83;83.15;96833.19;3552304;40;20606;-74
2021/08/10 03:11:21;;;;;;;3.67;1.80;;;;;;;11.89;82.87;96838.03;3550719;40;20467;-74
2021/08/10 03:13:50;;;;;;;6.27;2.43;;;;;;;11.86;83.01;96840.88;3549306;40;20468;-73
2021/08/10 03:16:20;;;;;;;4.53;2.27;;;;;;;11.96;82.62;96839.28;3553771;40;20520;-75
2021/08/10 03:18:52;;;;;;;5.80;2.30;;;;;;;11.97;82.42;96843.56;3550026;40;20854;-75
2021/08/10 03:21:21;;;;;;;9.27;2.10;;;;;;;11.93;82.93;96842.13;3553919;40;20805;-73
2021/08/10 03:23:54;;;;;;;6.60;2.20;;;;;;;11.95;82.83;96842.84;3553045;40;20479;-74
2021/08/10 03:26:25;;;;;;;3.93;1.87;;;;;;;11.82;83.25;96848.09;3550146;40;21689;-75
2021/08/10 03:28:54;;;;;;;8.23;2.30;;;;;;;11.71;83.45;96834.06;3551890;40;20525;-74
2021/08/10 03:31:23;;;;;;;1.87;1.33;;;;;;;11.84;83.30;96843.59;3550953;40;20828;-74
2021/08/10 03:33:51;;;;;;;5.50;1.87;;;;;;;11.85;83.17;96841.78;3550861;40;20846;-75
2021/08/10 03:36:20;;;;;;;3.30;1.60;;;;;;;11.80;83.49;96839.50;3553383;40;20474;-74
2021/08/10 03:38:50;;;;;;;6.57;2.13;;;;;;;11.93;83.11;96838.66;3555288;40;20457;-75
2021/08/10 03:41:19;;;;;;;9.33;2.00;;;;;;;11.82;83.82;96842.03;3556637;40;20929;-74
2021/08/10 03:43:47;;;;;;;3.10;1.80;;;;;;;11.77;84.55;96836.25;3551877;40;20900;-75
2021/08/10 03:46:16;;;;;;;6.77;2.80;;;;;;;11.86;84.46;96833.81;3546189;40;20805;-74
2021/08/10 03:48:45;;;;;;;7.13;1.83;;;;;;;12.02;83.75;96838.03;3548939;40;20879;-75
2021/08/10 03:51:14;;;;;;;4.43;1.80;;;;;;;12.09;84.17;96839.25;3549848;40;20719;-74
2021/08/10 03:53:43;;;;;;;8.90;2.63;;;;;;;12.23;83.38;96840.88;3549057;40;20484;-77
2021/08/10 03:56:13;;;;;;;4.03;1.43;;;;;;;12.18;83.56;96838.59;3548755;40;21130;-74
2021/08/10 03:58:45;;;;;;;3.93;2.17;;;;;;;12.01;84.71;96825.84;3549200;40;20443;-74
2021/08/10 04:01:14;;;;;;;4.57;2.60;;;;;;;11.97;85.41;96837.50;3549948;40;20468;-74
2021/08/10 04:03:44;;;;;;;7.90;2.10;;;;;;;12.16;85.34;96839.66;3541392;40;20447;-74
2021/08/10 04:06:13;;;;;;;7.03;2.13;;;;;;;12.23;84.75;96840.88;3549012;40;20467;-75
2021/08/10 04:08:41;;;;;;;4.80;1.87;;;;;;;12.27;84.54;96839.75;3552627;40;20818;-74
2021/08/10 04:11:09;;;;;;;5.87;2.30;;;;;;;12.26;84.58;96840.69;3541415;40;20925;-75
2021/08/10 04:13:37;;;;;;;6.53;2.10;;;;;;;12.12;83.73;96843.47;3552317;40;20461;-75
2021/08/10 04:16:10;;;;;;;5.90;1.80;;;;;;;12.15;82.50;96848.47;3551665;40;20839;-77
2021/08/10 04:18:40;;;;;;;3.67;1.40;;;;;;;11.87;82.77;96855.66;3552553;40;20468;-77
2021/08/10 04:21:08;;;;;;;5.87;2.47;;;;;;;11.65;84.69;96848.44;3552485;40;20491;-77
2021/08/10 04:23:36;;;;;;;2.93;1.70;;;;;;;11.99;83.49;96856.59;3550325;40;20445;-76
2021/08/10 04:26:04;;;;;;;2.50;1.70;;;;;;;12.22;83.09;96849.72;3550337;40;20540;-76
2021/08/10 04:28:32;;;;;;;8.17;1.90;;;;;;;12.43;82.77;96853.44;3554161;40;20748;-76
2021/08/10 04:31:00;;;;;;;5.40;2.53;;;;;;;12.36;83.75;96856.63;3542503;40;20465;-75
2021/08/10 04:33:29;;;;;;;3.73;2.03;;;;;;;12.35;84.51;96857.56;3549287;40;20469;-76
2021/08/10 04:35:57;;;;;;;7.60;2.40;;;;;;;12.25;84.88;96852.13;3556191;40;20791;-74
2021/08/10 04:38:25;;;;;;;4.80;1.93;;;;;;;12.23;84.60;96860.13;3550789;40;20474;-75
2021/08/10 04:40:54;;;;;;;9.43;2.03;;;;;;;11.78;87.02;96856.28;3550963;40;20581;-76
2021/08/10 04:43:21;;;;;;;10.30;2.00;;;;;;;12.31;85.61;96849.06;3554256;40;20841;-75
2021/08/10 04:45:50;;;;;;;7.13;2.10;;;;;;;12.48;84.90;96842.59;3553035;40;20560;-74
2021/08/10 04:48:18;;;;;;;6.50;2.10;;;;;;;12.70;84.29;96843.66;3544382;40;20468;-75
2021/08/10 04:50:47;;;;;;;9.80;2.37;;;;;;;12.75;84.10;96852.88;3552107;40;20848;-74
2021/08/10 04:53:15;;;;;;;8.83;1.80;;;;;;;12.86;83.44;96855.56;3552914;40;20479;-76
2021/08/10 04:55:43;;;;;;;4.30;1.80;;;;;;;12.90;84.45;96860.56;3551292;40;20843;-77
2021/08/10 04:58:11;;;;;;;9.60;2.30;;;;;;;12.91;84.86;96862.25;3542771;40;20844;-75
2021/08/10 05:00:48;;;;;;;4.33;2.70;;;;;;;13.03;84.61;96856.09;3554744;40;20797;-75
2021/08/10 05:03:16;;;;;;;4.87;1.60;;;;;;;13.18;83.81;96860.19;3551186;40;20878;-75
2021/08/10 05:05:48;;;;;;;2.57;1.80;;;;;;;13.12;84.24;96865.94;3554476;40;20493;-79
2021/08/10 05:08:16;;;;;;;6.70;2.13;;;;;;;13.19;84.03;96871.53;3553087;40;20536;-76
2021/08/10 05:10:45;;;;;;;5.77;1.93;;;;;;;13.07;83.53;96875.94;3546957;40;20832;-75
2021/08/10 05:13:13;;;;;;;8.20;2.23;;;;;;;12.57;85.23;96883.13;3551587;40;20459;-75
2021/08/10 05:15:41;;;;;;;9.67;2.50;;;;;;;12.32;85.63;96882.25;3554915;40;20445;-76
2021/08/10 05:18:09;;;;;;;8.40;2.10;;;;;;;12.50;85.20;96882.72;3591920;23;21134;-77
2021/08/10 05:20:37;;;;;;;11.17;2.40;;;;;;;12.69;84.14;96884.84;3570125;40;20776;-75
2021/08/10 05:23:06;;;;;;;5.10;2.50;;;;;;;12.72;83.47;96889.91;3568825;40;20852;-78
2021/08/10 05:25:34;;;;;;;4.53;2.50;;;;;;;12.71;83.72;96888.22;3567043;40;20757;-79
2021/08/10 05:28:02;;;;;;;6.27;2.67;;;;;;;12.58;83.50;96890.88;3556344;40;20463;-82
2021/08/10 05:30:30;;;;;;;4.13;2.43;;;;;;;12.68;83.50;96888.41;3563425;40;20906;-80
2021/08/10 05:32:58;;;;;;;12.90;3.23;;;;;;;13.01;82.50;96893.00;3563212;40;20466;-82
2021/08/10 05:35:26;;;;;;;7.40;2.57;;;;;;;13.23;81.52;96894.88;3558427;40;20798;-79
2021/08/10 05:37:55;;;;;;;6.03;1.90;;;;;;;13.04;82.39;96887.53;3561542;40;20470;-81
2021/08/10 05:40:24;;;;;;;7.03;3.30;;;;;;;13.41;80.80;96889.25;3563271;40;20454;-80
2021/08/10 05:42:52;;;;;;;4.63;3.13;;;;;;;13.47;80.71;96891.41;3562048;40;20831;-80
2021/08/10 05:45:20;;;;;;;6.63;2.30;;;;;;;13.78;79.79;96889.88;3561583;40;20968;-80
2021/08/10 05:47:48;;;;;;;7.40;2.60;;;;;;;13.60;80.86;96886.03;3566200;40;20503;-77
2021/08/10 05:50:17;;;;;;;4.63;2.17;;;;;;;13.59;81.48;96893.09;3567420;40;20434;-77
2021/08/10 05:52:44;;;;;;;6.20;1.63;;;;;;;13.67;80.71;96896.94;3567856;40;20453;-77
2021/08/10 05:55:12;;;;;;;5.57;1.83;;;;;;;14.00;80.22;96896.97;3562741;40;20477;-77
2021/08/10 05:57:42;;;;;;;3.13;1.87;;;;;;;14.01;81.18;96888.13;3556539;40;20587;-76
2021/08/10 06:00:10;;;;;;;4.20;2.03;;;;;;;13.90;81.07;96892.50;3562492;40;20459;-76
2021/08/10 06:02:38;;;;;;;6.13;2.23;;;;;;;14.26;79.77;96896.72;3560746;40;20835;-76
2021/08/10 06:05:08;;;;;;;3.73;1.97;;;;;;;14.37;79.59;96894.06;3556805;40;20696;-76
2021/08/10 06:07:36;;;;;;;2.60;2.40;;;;;;;14.29;80.69;96900.88;3563572;40;20461;-76
2021/08/10 06:10:04;;;;;;;9.43;2.10;;;;;;;14.65;79.38;96899.78;3563672;40;20467;-76
2021/08/10 06:12:33;;;;;;;5.50;2.50;;;;;;;14.26;80.84;96893.25;3563110;40;20772;-76
2021/08/10 06:15:03;;;;;;;6.43;2.70;;;;;;;14.68;78.89;96882.88;3561193;40;20997;-76
2021/08/10 06:17:31;;;;;;;5.57;2.03;;;;;;;14.10;81.35;96872.53;3552269;40;20544;-76
2021/08/10 06:20:00;;;;;;;6.53;2.60;;;;;;;14.50;80.58;96890.44;3559193;40;20800;-76
2021/08/10 06:22:28;;;;;;;3.90;2.60;;;;;;;15.06;77.64;96886.84;3569158;40;20479;-76
2021/08/10 06:24:56;;;;;;;5.23;2.40;;;;;;;14.97;77.77;96888.44;3570148;40;20841;-76
2021/08/10 06:27:24;;;;;;;6.90;2.90;;;;;;;15.51;76.79;96876.91;3562179;40;20471;-76
2021/08/10 06:29:52;;;;;;;4.97;2.20;;;;;;;15.67;74.20;96876.44;3561848;40;20552;-76
2021/08/10 06:32:22;;;;;;;22.53;12.57;;;;;;;15.84;72.93;96875.03;3562670;40;20478;-76
2021/08/10 06:34:50;;;;;;;54.47;28.80;;;;;;;16.03;72.18;96876.91;3562460;40;20466;-75
2021/08/10 06:37:17;;;;;;;13.13;2.40;;;;;;;16.09;71.43;96881.69;3554760;40;20462;-74
2021/08/10 06:39:45;;;;;;;11.10;2.00;;;;;;;15.95;71.01;96888.13;3550762;40;20913;-75
2021/08/10 06:42:13;;;;;;;4.67;2.20;;;;;;;15.99;71.63;96884.28;3569847;40;20508;-75
2021/08/10 06:44:41;;;;;;;3.53;2.20;;;;;;;16.08;71.45;96879.16;3569323;40;20855;-75
2021/08/10 06:47:11;;;;;;;7.90;2.60;;;;;;;15.99;72.37;96875.50;3564685;40;21124;-75
2021/08/10 06:49:41;;;;;;;7.20;2.67;;;;;;;16.13;72.14;96871.66;3555837;40;20478;-74
2021/08/10 06:52:10;;;;;;;5.23;2.00;;;;;;;16.13;71.92;96867.25;3560428;40;20449;-75
2021/08/10 06:54:38;;;;;;;10.07;2.77;;;;;;;16.45;71.59;96875.97;3564937;40;20812;-74
2021/08/10 06:57:07;;;;;;;9.00;2.40;;;;;;;16.38;71.38;96871.19;3561826;40;20828;-75
2021/08/10 06:59:37;;;;;;;4.67;2.83;;;;;;;15.90;73.95;96865.75;3558974;40;20958;-75
2021/08/10 07:02:05;;;;;;;18.67;10.23;;;;;;;15.96;74.27;96865.22;3557577;40;20638;-76
2021/08/10 07:04:35;;;;;;;6.30;2.50;;;;;;;15.67;75.50;96860.59;3561722;40;20816;-75
2021/08/10 07:07:05;;;;;;;3.17;1.97;;;;;;;15.70;75.67;96854.19;3562588;40;20688;-75
2021/08/10 07:09:33;;;;;;;5.00;2.50;;;;;;;16.23;74.43;96846.13;3551249;40;20591;-76
2021/08/10 07:12:01;;;;;;;5.93;2.50;;;;;;;16.78;72.62;96846.50;3559613;40;20842;-76
2021/08/10 07:14:29;;;;;;;5.17;1.97;;;;;;;17.25;71.61;96850.28;3564331;40;20860;-77
2021/08/10 07:16:57;;;;;;;7.43;2.40;;;;;;;17.59;69.96;96846.19;3562633;40;20479;-77
2021/08/10 07:19:25;;;;;;;5.77;2.30;;;;;;;17.85;69.13;96842.09;3561361;40;20879;-77
2021/08/10 07:21:55;;;;;;;5.93;1.87;;;;;;;17.61;68.41;96842.56;3554366;40;20877;-77
2021/08/10 07:24:25;;;;;;;4.70;1.93;;;;;;;17.77;68.46;96837.50;3563511;40;21008;-77
2021/08/10 07:26:54;;;;;;;5.37;2.17;;;;;;;18.08;68.01;96845.22;3556988;40;20529;-77
2021/08/10 07:29:30;;;;;;;2.90;2.00;;;;;;;18.35;66.63;96841.75;3566552;40;20866;-77
2021/08/10 07:31:58;;;;;;;5.20;2.20;;;;;;;18.53;66.52;96841.75;3555817;40;20462;-77
2021/08/10 07:34:28;;;;;;;7.23;2.60;;;;;;;18.92;65.09;96833.56;3553288;40;20541;-77
2021/08/10 07:37:15;;;;;;;3.53;1.50;;;;;;;18.85;61.60;96829.84;3557407;40;20754;-77
2021/08/10 07:39:44;;;;;;;10.13;2.00;;;;;;;19.03;63.21;96827.19;3559846;40;20450;-77
2021/08/10 07:42:13;;;;;;;6.30;2.20;;;;;;;18.93;63.65;96817.50;3563038;40;20482;-77
2021/08/10 07:44:41;;;;;;;3.90;1.83;;;;;;;19.34;61.92;96820.44;3567135;40;20786;-77
2021/08/10 07:47:13;;;;;;;4.80;1.50;;;;;;;19.49;60.53;96830.53;3570186;40;20615;-78
2021/08/10 07:49:42;;;;;;;4.43;1.77;;;;;;;19.97;58.10;96823.03;3564430;40;20477;-77
2021/08/10 07:52:10;;;;;;;3.50;1.53;;;;;;;20.01;57.91;96819.06;3562395;40;20909;-78
2021/08/10 07:54:38;;;;;;;3.37;1.40;;;;;;;19.78;57.42;96814.31;3563872;40;20441;-77
2021/08/10 07:57:07;;;;;;;9.77;1.93;;;;;;;20.19;57.45;96819.81;3566399;40;20859;-77
2021/08/10 07:59:35;;;;;;;3.83;1.60;;;;;;;20.48;56.74;96816.75;3554943;40;20556;-74
2021/08/10 08:02:03;;;;;;;3.93;1.40;;;;;;;20.32;57.22;96808.72;3552222;40;20861;-75
2021/08/10 08:04:34;;;;;;;8.87;1.70;;;;;;;20.34;57.83;96804.88;3551574;40;20530;-76
2021/08/10 08:07:02;;;;;;;5.43;1.30;;;;;;;20.43;56.07;96800.44;3550746;40;20539;-76
2021/08/10 08:09:30;;;;;;;2.77;1.40;;;;;;;20.25;57.50;96802.41;3561724;40;20572;-76
2021/08/10 08:12:00;;;;;;;5.97;1.47;;;;;;;20.55;55.22;96800.97;3560972;40;21125;-75
2021/08/10 08:14:29;;;;;;;3.43;1.40;;;;;;;20.21;57.01;96809.00;3562530;40;20771;-76
2021/08/10 08:16:57;;;;;;;5.80;1.73;;;;;;;20.42;57.33;96800.59;3560781;40;20564;-76
2021/08/10 08:19:25;;;;;;;2.77;1.50;;;;;;;20.74;56.94;96800.69;3561286;40;20810;-75
2021/08/10 08:21:53;;;;;;;4.80;1.47;;;;;;;20.76;56.21;96799.69;3556483;40;20549;-77
2021/08/10 08:24:21;;;;;;;3.30;1.23;;;;;;;20.74;56.44;96799.88;3560750;40;20455;-76
2021/08/10 08:26:50;;;;;;;3.27;1.50;;;;;;;20.46;57.25;96799.28;3551092;40;20917;-74
2021/08/10 08:29:18;;;;;;;3.30;1.70;;;;;;;19.75;58.18;96804.81;3560286;40;20937;-75
2021/08/10 08:31:47;;;;;;;4.50;1.40;;;;;;;20.49;55.63;96813.09;3553933;40;20827;-75
2021/08/10 08:34:21;;;;;;;3.80;1.30;;;;;;;20.72;54.92;96817.84;3563682;40;20465;-75
2021/08/10 08:36:49;;;;;;;7.23;1.70;;;;;;;20.95;53.79;96820.66;3562303;40;20921;-77
2021/08/10 08:39:17;;;;;;;2.20;1.30;;;;;;;21.25;53.47;96826.38;3560720;40;20477;-75
2021/08/10 08:41:46;;;;;;;2.60;1.30;;;;;;;21.17;54.07;96829.00;3551519;40;20469;-75
2021/08/10 08:44:16;;;;;;;4.23;1.73;;;;;;;21.26;53.63;96820.84;3563582;40;20493;-75
2021/08/10 08:46:45;;;;;;;5.80;1.40;;;;;;;21.59;52.12;96822.69;3564514;40;20582;-75
2021/08/10 08:49:16;;;;;;;5.33;1.33;;;;;;;21.69;53.26;96826.00;3564922;40;20458;-74
2021/08/10 08:51:46;;;;;;;3.17;1.23;;;;;;;21.87;52.31;96831.94;3562063;40;20467;-75
2021/08/10 08:54:21;;;;;;;7.13;1.70;;;;;;;21.82;51.40;96836.97;3565452;40;20866;-76
2021/08/10 08:56:49;;;;;;;2.80;1.33;;;;;;;21.50;51.41;96841.34;3552871;40;20469;-75
2021/08/10 08:59:17;;;;;;;5.73;1.63;;;;;;;21.52;51.10;96839.34;3563015;40;20855;-74
2021/08/10 09:01:45;;;;;;;5.47;1.30;;;;;;;21.04;50.86;96843.66;3551535;40;20473;-77
2021/08/10 09:04:15;;;;;;;5.23;1.40;;;;;;;21.26;50.35;96834.16;3560769;40;20887;-74
2021/08/10 09:06:43;;;;;;;9.70;6.43;;;;;;;21.57;50.29;96835.34;3567736;40;20744;-75
2021/08/10 09:09:22;;;;;;;2.60;1.80;;;;;;;21.35;50.56;96835.00;3564773;40;20821;-78
2021/08/10 09:11:50;;;;;;;6.73;1.50;;;;;;;21.53;50.36;96838.34;3552545;40;20489;-75
2021/08/10 09:14:18;;;;;;;4.63;1.50;;;;;;;21.30;51.74;96842.66;3563737;40;20845;-76
2021/08/10 09:17:05;;;;;;;9.80;5.53;;;;;;;21.03;50.75;96842.00;3562552;40;20533;-76
2021/08/10 09:19:43;;;;;;;7.50;3.77;;;;;;;21.32;49.63;96843.31;3563779;40;20461;-74
2021/08/10 09:22:20;;;;;;;4.17;1.57;;;;;;;21.59;49.56;96831.50;3562851;40;20603;-73
2021/08/10 09:24:52;;;;;;;2.47;1.27;;;;;;;21.68;49.13;96835.84;3565549;40;20558;-75
2021/08/10 09:27:26;;;;;;;2.93;1.23;;;;;;;21.86;48.83;96838.28;3552896;40;20570;-76
2021/08/10 09:29:54;;;;;;;4.20;1.13;;;;;;;22.25;49.58;96836.69;3565296;40;20454;-77
2021/08/10 09:32:22;;;;;;;3.33;1.30;;;;;;;22.46;47.86;96834.28;3565418;40;20758;-74
2021/08/10 09:35:07;;;;;;;4.20;1.50;;;;;;;21.66;50.26;96842.31;3561970;40;20572;-75
2021/08/10 09:37:35;;;;;;;2.20;1.23;;;;;;;21.20;51.98;96842.00;3551091;40;20567;-74
2021/08/10 09:40:28;;;;;;;4.13;1.70;;;;;;;21.79;49.74;96845.28;3565144;40;20762;-76
2021/08/10 09:43:21;;;;;;;3.83;1.23;;;;;;;22.16;48.90;96843.84;3568822;40;20469;-74
2021/08/10 09:45:49;;;;;;;15.33;2.13;;;;;;;21.95;49.67;96843.59;3568446;40;20458;-75
2021/08/10 09:48:18;;;;;;;2.57;1.23;;;;;;;21.39;51.17;96857.63;3558486;40;20478;-76
2021/08/10 09:50:48;;;;;;;3.77;1.53;;;;;;;21.47;50.27;96838.19;3568071;40;20569;-75
2021/08/10 09:53:17;;;;;;;4.40;1.60;;;;;;;21.73;51.53;96848.63;3573426;40;20482;-75
2021/08/10 09:55:55;;;;;;;4.77;1.33;;;;;;;22.24;50.09;96853.66;3569551;40;20525;-74
2021/08/10 09:58:23;;;;;;;4.40;1.60;;;;;;;22.36;48.73;96849.63;3573555;40;20462;-74
2021/08/10 10:00:52;;;;;;;4.57;1.43;;;;;;;22.30;49.92;96843.16;3562436;40;20847;-74
2021/08/10 10:03:22;;;;;;;2.60;1.30;;;;;;;23.02;49.35;96839.44;3630565;22;20720;-73
2021/08/10 10:05:52;;;;;;;6.73;1.63;;;;;;;23.45;48.53;96847.78;3597203;39;20684;-74
2021/08/10 10:08:22;;;;;;;3.30;1.40;;;;;;;23.73;48.67;96841.03;3596081;39;20781;-74
2021/08/10 10:10:52;;;;;;;6.20;2.00;;;;;;;23.37;49.83;96847.03;3596274;39;20736;-73
2021/08/10 10:13:21;;;;;;;5.57;1.70;;;;;;;23.47;50.37;96850.28;3596987;39;20453;-74
2021/08/10 10:15:50;;;;;;;3.60;1.60;;;;;;;23.63;50.79;96842.13;3597301;39;20763;-73
2021/08/10 10:18:22;;;;;;;4.43;1.43;;;;;;;23.45;50.27;96850.47;3595949;39;20857;-74
2021/08/10 10:20:52;;;;;;;4.37;1.60;;;;;;;23.46;48.28;96849.47;3596600;39;20514;-74
2021/08/10 10:23:25;;;;;;;3.60;1.50;;;;;;;23.63;49.77;96836.75;3595951;39;20456;-74
2021/08/10 10:25:54;;;;;;;7.57;2.00;;;;;;;23.15;49.57;96843.34;3597056;39;20497;-74
2021/08/10 10:28:23;;;;;;;1.97;1.30;;;;;;;24.20;48.11;96843.38;3596244;39;20455;-75
2021/08/10 10:30:51;;;;;;;5.00;3.00;;;;;;;24.90;46.05;96845.69;3596117;39;20777;-73
2021/08/10 10:33:19;;;;;;;13.63;5.03;;;;;;;24.04;46.08;96846.25;3598055;39;20883;-73
2021/08/10 10:35:49;;;;;;;10.23;2.60;;;;;;;23.91;45.83;96851.41;3600855;39;20477;-73
2021/08/10 10:38:19;;;;;;;49.97;23.80;;;;;;;23.99;46.96;96853.97;3598730;39;20535;-73
2021/08/10 10:40:47;;;;;;;42.23;20.77;;;;;;;23.55;46.62;96854.72;3598936;39;20502;-73
2021/08/10 10:43:15;;;;;;;63.73;30.57;;;;;;;23.68;47.44;96844.25;3598129;39;20773;-74
2021/08/10 10:45:44;;;;;;;4.00;2.93;;;;;;;24.06;47.74;96845.03;3599302;39;20479;-74
2021/08/10 10:48:45;;;;;;;3.27;1.67;;;;;;;24.54;47.92;96849.19;3599111;39;20811;-72
2021/08/10 10:51:15;;;;;;;3.97;1.43;;;;;;;24.14;47.63;96849.47;3597386;39;20846;-74
2021/08/10 10:53:46;;;;;;;6.27;1.83;;;;;;;24.38;48.23;96839.47;3590963;39;20448;-73
2021/08/10 10:56:35;;;;;;;3.90;1.50;;;;;;;24.59;48.36;96839.56;3596367;39;20473;-74
2021/08/10 10:59:32;;;;;;;2.80;1.57;;;;;;;24.69;46.76;96847.31;3593849;39;20479;-73
2021/08/10 11:02:16;;;;;;;3.90;1.47;;;;;;;25.33;47.18;96841.19;3597816;39;20510;-74
2021/08/10 11:05:22;;;;;;;9.10;1.90;;;;;;;25.37;45.17;96844.31;3595459;39;20479;-74
2021/08/10 11:07:53;;;;;;;2.63;1.40;;;;;;;25.35;45.76;96841.00;3596221;39;20479;-74
2021/08/10 11:10:38;;;;;;;5.00;1.47;;;;;;;25.73;42.76;96838.81;3597510;39;21205;-73
2021/08/10 11:13:41;;;;;;;8.90;1.90;;;;;;;25.14;46.14;96839.13;3599491;39;20865;-75
2021/08/10 11:16:10;;;;;;;3.10;1.70;;;;;;;25.58;42.03;96838.94;3599077;39;20462;-74
2021/08/10 11:18:39;;;;;;;3.60;1.33;;;;;;;23.24;48.77;96845.78;3601071;39;21409;-73
2021/08/10 11:21:26;;;;;;;6.70;1.47;;;;;;;24.76;47.99;96847.41;3595918;39;20530;-74
2021/08/10 11:23:56;;;;;;;5.27;1.70;;;;;;;25.88;45.97;96833.34;3597331;39;20786;-74
2021/08/10 11:26:37;;;;;;;28.73;18.93;;;;;;;25.78;45.07;96833.72;3595875;39;20933;-72
2021/08/10 11:29:06;;;;;;;3.70;1.90;;;;;;;25.37;43.89;96826.38;3597017;39;20482;-73
2021/08/10 11:31:41;;;;;;;4.73;1.50;;;;;;;25.81;46.09;96835.97;3597063;39;20459;-73
2021/08/10 11:34:37;;;;;;;3.43;1.47;;;;;;;25.38;45.27;96838.75;3596334;39;20579;-74
2021/08/10 11:37:19;;;;;;;5.00;1.90;;;;;;;25.72;44.83;96826.44;3596108;39;21144;-75
2021/08/10 11:40:11;;;;;;;5.30;1.80;;;;;;;25.56;47.31;96832.09;3595609;39;20862;-74
2021/08/10 11:42:42;;;;;;;6.10;1.50;;;;;;;25.89;48.11;96834.19;3593604;39;20474;-75
2021/08/10 11:45:11;;;;;;;3.20;1.83;;;;;;;25.98;43.64;96838.41;3596200;39;20455;-76
2021/08/10 11:47:39;;;;;;;5.40;2.00;;;;;;;25.96;44.06;96827.88;3596441;39;20781;-74